sensor_id;sensor_type;location;lat;lon;timestamp;temperature;humidity
16964;DHT22;8598;50.508;10.436;2023-12-29T00:00:09;6.20;99.90
16964;DHT22;8598;50.508;10.436;2023-12-29T00:02:37;6.10;99.90
16964;DHT22;8598;50.508;10.436;2023-12-29T00:05:04;6.00;99.90
16964;DHT22;8598;50.508;10.436;2023-12-29T00:07:31;5.90;99.90
16964;DHT22;8598;50.508;10.436;2023-12-29T00:09:58;5.80;99.90
16964;DHT22;8598;50.508;10.436;2023-12-29T00:12:24;5.70;99.90
16964;DHT22;8598;50.508;10.436;2023-12-29T00:14:51;5.70;99.90
16964;DHT22;8598;50.508;10.436;2023-12-29T00:17:17;5.80;99.90
16964;DHT22;8598;50.508;10.436;2023-12-29T00:19:45;5.80;99.90
16964;DHT22;8598;50.508;10.436;2023-12-29T00:22:12;5.80;99.90
16964;DHT22;8598;50.508;10.436;2023-12-29T00:24:38;5.90;99.90
16964;DHT22;8598;50.508;10.436;2023-12-29T00:27:05;6.10;99.90
16964;DHT22;8598;50.508;10.436;2023-12-29T00:29:32;6.20;99.90
16964;DHT22;8598;50.508;10.436;2023-12-29T00:31:59;6.30;99.90
16964;DHT22;8598;50.508;10.436;2023-12-29T00:34:26;6.50;99.90
16964;DHT22;8598;50.508;10.436;2023-12-29T00:36:53;6.50;99.90
16964;DHT22;8598;50.508;10.436;2023-12-29T00:39:20;6.60;99.90
16964;DHT22;8598;50.508;10.436;2023-12-29T00:41:54;6.60;99.90
16964;DHT22;8598;50.508;10.436;2023-12-29T00:44:20;6.60;99.90
16964;DHT22;8598;50.508;10.436;2023-12-29T00:46:47;6.80;99.90
16964;DHT22;8598;50.508;10.436;2023-12-29T00:49:13;6.90;99.90
16964;DHT22;8598;50.508;10.436;2023-12-29T00:51:40;7.00;99.90
16964;DHT22;8598;50.508;10.436;2023-12-29T00:54:08;7.00;99.90
16964;DHT22;8598;50.508;10.436;2023-12-29T00:56:35;7.10;99.90
16964;DHT22;8598;50.508;10.436;2023-12-29T00:59:02;7.30;99.90
16964;DHT22;8598;50.508;10.436;2023-12-29T01:01:28;7.40;99.90
16964;DHT22;8598;50.508;10.436;2023-12-29T01:03:59;7.40;99.90
16964;DHT22;8598;50.508;10.436;2023-12-29T01:06:25;7.20;99.90
16964;DHT22;8598;50.508;10.436;2023-12-29T01:08:52;7.30;99.90
16964;DHT22;8598;50.508;10.436;2023-12-29T01:11:20;7.30;99.90
16964;DHT22;8598;50.508;10.436;2023-12-29T01:13:46;7.30;99.90
16964;DHT22;8598;50.508;10.436;2023-12-29T01:16:13;7.30;99.90
16964;DHT22;8598;50.508;10.436;2023-12-29T01:18:40;7.40;99.90
16964;DHT22;8598;50.508;10.436;2023-12-29T01:21:06;7.40;99.90
16964;DHT22;8598;50.508;10.436;2023-12-29T01:23:33;7.30;99.90
16964;DHT22;8598;50.508;10.436;2023-12-29T01:25:59;7.40;99.90
16964;DHT22;8598;50.508;10.436;2023-12-29T01:28:27;7.40;99.90
16964;DHT22;8598;50.508;10.436;2023-12-29T01:30:54;7.50;99.90
16964;DHT22;8598;50.508;10.436;2023-12-29T01:33:20;7.40;99.90
16964;DHT22;8598;50.508;10.436;2023-12-29T01:35:47;7.50;99.90
16964;DHT22;8598;50.508;10.436;2023-12-29T01:38:14;7.40;99.90
16964;DHT22;8598;50.508;10.436;2023-12-29T01:40:44;7.50;99.90
16964;DHT22;8598;50.508;10.436;2023-12-29T01:43:11;7.40;99.90
16964;DHT22;8598;50.508;10.436;2023-12-29T01:45:39;7.40;99.90
16964;DHT22;8598;50.508;10.436;2023-12-29T01:48:06;7.50;99.90
16964;DHT22;8598;50.508;10.436;2023-12-29T01:50:34;7.50;99.90
16964;DHT22;8598;50.508;10.436;2023-12-29T01:53:01;7.60;99.90
16964;DHT22;8598;50.508;10.436;2023-12-29T01:55:29;7.70;99.90
16964;DHT22;8598;50.508;10.436;2023-12-29T01:57:56;7.70;99.90
16964;DHT22;8598;50.508;10.436;2023-12-29T02:00:23;7.60;99.90
16964;DHT22;8598;50.508;10.436;2023-12-29T02:02:51;7.70;99.90
16964;DHT22;8598;50.508;10.436;2023-12-29T02:05:20;7.70;99.90
16964;DHT22;8598;50.508;10.436;2023-12-29T02:07:50;7.70;99.90
16964;DHT22;8598;50.508;10.436;2023-12-29T02:10:17;7.80;99.90
16964;DHT22;8598;50.508;10.436;2023-12-29T02:12:45;7.80;99.90
16964;DHT22;8598;50.508;10.436;2023-12-29T02:15:12;7.80;99.90
16964;DHT22;8598;50.508;10.436;2023-12-29T02:17:41;7.90;99.90
16964;DHT22;8598;50.508;10.436;2023-12-29T02:20:11;7.90;99.90
16964;DHT22;8598;50.508;10.436;2023-12-29T02:22:41;7.80;99.90
16964;DHT22;8598;50.508;10.436;2023-12-29T02:25:09;7.90;99.90
16964;DHT22;8598;50.508;10.436;2023-12-29T02:27:43;7.90;99.90
16964;DHT22;8598;50.508;10.436;2023-12-29T02:30:18;7.90;99.90
16964;DHT22;8598;50.508;10.436;2023-12-29T02:32:47;7.90;99.90
16964;DHT22;8598;50.508;10.436;2023-12-29T02:35:18;7.90;99.90
16964;DHT22;8598;50.508;10.436;2023-12-29T02:37:47;8.00;99.90
16964;DHT22;8598;50.508;10.436;2023-12-29T02:40:15;8.00;99.90
16964;DHT22;8598;50.508;10.436;2023-12-29T02:42:46;8.00;99.90
16964;DHT22;8598;50.508;10.436;2023-12-29T02:45:13;7.90;99.90
16964;DHT22;8598;50.508;10.436;2023-12-29T02:47:40;7.90;99.90
16964;DHT22;8598;50.508;10.436;2023-12-29T02:50:08;7.90;99.90
16964;DHT22;8598;50.508;10.436;2023-12-29T02:52:35;7.90;99.90
16964;DHT22;8598;50.508;10.436;2023-12-29T02:55:01;7.90;99.90
16964;DHT22;8598;50.508;10.436;2023-12-29T02:57:30;8.00;99.90
16964;DHT22;8598;50.508;10.436;2023-12-29T02:59:56;8.00;99.90
16964;DHT22;8598;50.508;10.436;2023-12-29T03:02:23;7.90;99.90
16964;DHT22;8598;50.508;10.436;2023-12-29T03:04:50;7.90;99.90
16964;DHT22;8598;50.508;10.436;2023-12-29T03:07:17;7.90;99.90
16964;DHT22;8598;50.508;10.436;2023-12-29T03:09:43;8.00;99.90
16964;DHT22;8598;50.508;10.436;2023-12-29T03:12:10;8.00;99.90
16964;DHT22;8598;50.508;10.436;2023-12-29T03:14:38;7.90;99.90
16964;DHT22;8598;50.508;10.436;2023-12-29T03:17:04;8.10;99.90
16964;DHT22;8598;50.508;10.436;2023-12-29T03:19:31;8.00;99.90
16964;DHT22;8598;50.508;10.436;2023-12-29T03:21:58;8.00;99.90
16964;DHT22;8598;50.508;10.436;2023-12-29T03:24:24;8.00;99.90
16964;DHT22;8598;50.508;10.436;2023-12-29T03:26:51;8.10;99.90
16964;DHT22;8598;50.508;10.436;2023-12-29T03:29:17;7.90;99.90
16964;DHT22;8598;50.508;10.436;2023-12-29T03:31:45;7.90;99.90
16964;DHT22;8598;50.508;10.436;2023-12-29T03:34:12;7.90;99.90
16964;DHT22;8598;50.508;10.436;2023-12-29T03:36:39;8.00;99.90
16964;DHT22;8598;50.508;10.436;2023-12-29T03:39:05;8.00;99.90
16964;DHT22;8598;50.508;10.436;2023-12-29T03:41:32;8.00;99.90
16964;DHT22;8598;50.508;10.436;2023-12-29T03:43:58;8.00;99.90
16964;DHT22;8598;50.508;10.436;2023-12-29T03:46:25;8.00;99.90
16964;DHT22;8598;50.508;10.436;2023-12-29T03:48:53;8.00;99.90
16964;DHT22;8598;50.508;10.436;2023-12-29T03:51:20;7.90;99.90
16964;DHT22;8598;50.508;10.436;2023-12-29T03:53:46;8.00;99.90
16964;DHT22;8598;50.508;10.436;2023-12-29T03:56:15;7.90;99.90
16964;DHT22;8598;50.508;10.436;2023-12-29T03:58:42;7.90;99.90
16964;DHT22;8598;50.508;10.436;2023-12-29T04:01:09;7.90;99.90
16964;DHT22;8598;50.508;10.436;2023-12-29T04:03:36;7.90;99.90
16964;DHT22;8598;50.508;10.436;2023-12-29T04:06:04;8.00;99.90
16964;DHT22;8598;50.508;10.436;2023-12-29T04:08:31;8.00;99.90
16964;DHT22;8598;50.508;10.436;2023-12-29T04:10:57;8.10;99.90
16964;DHT22;8598;50.508;10.436;2023-12-29T04:13:24;8.10;99.90
16964;DHT22;8598;50.508;10.436;2023-12-29T04:15:50;8.10;99.90
16964;DHT22;8598;50.508;10.436;2023-12-29T04:18:17;8.10;99.90
16964;DHT22;8598;50.508;10.436;2023-12-29T04:20:44;8.10;99.90
16964;DHT22;8598;50.508;10.436;2023-12-29T04:23:11;8.10;99.90
16964;DHT22;8598;50.508;10.436;2023-12-29T04:25:39;8.10;99.90
16964;DHT22;8598;50.508;10.436;2023-12-29T04:28:06;8.10;99.90
16964;DHT22;8598;50.508;10.436;2023-12-29T04:30:33;8.10;99.90
16964;DHT22;8598;50.508;10.436;2023-12-29T04:32:59;8.10;99.90
16964;DHT22;8598;50.508;10.436;2023-12-29T04:35:26;8.10;99.90
16964;DHT22;8598;50.508;10.436;2023-12-29T04:37:53;8.10;99.90
16964;DHT22;8598;50.508;10.436;2023-12-29T04:40:21;8.10;99.90
16964;DHT22;8598;50.508;10.436;2023-12-29T04:42:47;8.10;99.90
16964;DHT22;8598;50.508;10.436;2023-12-29T04:45:14;8.20;99.90
16964;DHT22;8598;50.508;10.436;2023-12-29T04:47:40;8.10;99.90
16964;DHT22;8598;50.508;10.436;2023-12-29T04:50:08;8.00;99.90
16964;DHT22;8598;50.508;10.436;2023-12-29T04:52:34;8.10;99.90
16964;DHT22;8598;50.508;10.436;2023-12-29T04:55:01;8.10;99.90
16964;DHT22;8598;50.508;10.436;2023-12-29T04:57:29;8.10;99.90
16964;DHT22;8598;50.508;10.436;2023-12-29T04:59:56;8.10;99.90
16964;DHT22;8598;50.508;10.436;2023-12-29T05:02:22;8.10;99.90
16964;DHT22;8598;50.508;10.436;2023-12-29T05:04:49;8.10;99.90
16964;DHT22;8598;50.508;10.436;2023-12-29T05:07:15;8.10;99.90
16964;DHT22;8598;50.508;10.436;2023-12-29T05:09:42;8.10;99.90
16964;DHT22;8598;50.508;10.436;2023-12-29T05:12:09;8.10;99.90
16964;DHT22;8598;50.508;10.436;2023-12-29T05:14:36;8.10;99.90
16964;DHT22;8598;50.508;10.436;2023-12-29T05:17:03;8.10;99.90
16964;DHT22;8598;50.508;10.436;2023-12-29T05:19:30;8.00;99.90
16964;DHT22;8598;50.508;10.436;2023-12-29T05:21:56;8.00;99.90
16964;DHT22;8598;50.508;10.436;2023-12-29T05:24:23;8.00;99.90
16964;DHT22;8598;50.508;10.436;2023-12-29T05:26:49;8.00;99.90
16964;DHT22;8598;50.508;10.436;2023-12-29T05:29:16;8.10;99.90
16964;DHT22;8598;50.508;10.436;2023-12-29T05:31:44;8.10;99.90
16964;DHT22;8598;50.508;10.436;2023-12-29T05:34:10;8.10;99.90
16964;DHT22;8598;50.508;10.436;2023-12-29T05:36:37;8.10;99.90
16964;DHT22;8598;50.508;10.436;2023-12-29T05:39:04;8.10;99.90
16964;DHT22;8598;50.508;10.436;2023-12-29T05:41:30;8.00;99.90
16964;DHT22;8598;50.508;10.436;2023-12-29T05:43:57;8.00;99.90
16964;DHT22;8598;50.508;10.436;2023-12-29T05:46:24;8.00;99.90
16964;DHT22;8598;50.508;10.436;2023-12-29T05:48:52;8.00;99.90
16964;DHT22;8598;50.508;10.436;2023-12-29T05:51:18;8.00;99.90
16964;DHT22;8598;50.508;10.436;2023-12-29T05:53:45;8.00;99.90
16964;DHT22;8598;50.508;10.436;2023-12-29T05:56:13;8.00;99.90
16964;DHT22;8598;50.508;10.436;2023-12-29T05:58:40;8.00;99.90
16964;DHT22;8598;50.508;10.436;2023-12-29T06:01:07;8.10;99.90
16964;DHT22;8598;50.508;10.436;2023-12-29T06:03:33;8.00;99.90
16964;DHT22;8598;50.508;10.436;2023-12-29T06:06:01;8.00;99.90
16964;DHT22;8598;50.508;10.436;2023-12-29T06:08:28;8.00;99.90
16964;DHT22;8598;50.508;10.436;2023-12-29T06:10:55;8.00;99.90
16964;DHT22;8598;50.508;10.436;2023-12-29T06:13:22;8.00;99.90
16964;DHT22;8598;50.508;10.436;2023-12-29T06:15:48;8.00;99.90
16964;DHT22;8598;50.508;10.436;2023-12-29T06:18:15;8.00;99.90
16964;DHT22;8598;50.508;10.436;2023-12-29T06:20:41;8.70;99.90
16964;DHT22;8598;50.508;10.436;2023-12-29T06:23:09;8.00;99.90
16964;DHT22;8598;50.508;10.436;2023-12-29T06:25:36;8.00;99.90
16964;DHT22;8598;50.508;10.436;2023-12-29T06:28:05;8.00;99.90
16964;DHT22;8598;50.508;10.436;2023-12-29T06:30:32;8.00;99.90
16964;DHT22;8598;50.508;10.436;2023-12-29T06:32:58;8.00;99.90
16964;DHT22;8598;50.508;10.436;2023-12-29T06:35:25;8.00;99.90
16964;DHT22;8598;50.508;10.436;2023-12-29T06:37:51;7.90;99.90
16964;DHT22;8598;50.508;10.436;2023-12-29T06:40:19;7.90;99.90
16964;DHT22;8598;50.508;10.436;2023-12-29T06:42:46;7.90;99.90
16964;DHT22;8598;50.508;10.436;2023-12-29T06:45:12;8.00;99.90
16964;DHT22;8598;50.508;10.436;2023-12-29T06:47:39;8.00;99.90
16964;DHT22;8598;50.508;10.436;2023-12-29T06:50:06;8.00;99.90
16964;DHT22;8598;50.508;10.436;2023-12-29T06:52:38;8.00;99.90
16964;DHT22;8598;50.508;10.436;2023-12-29T06:55:08;8.00;99.90
16964;DHT22;8598;50.508;10.436;2023-12-29T06:57:36;8.00;99.90
16964;DHT22;8598;50.508;10.436;2023-12-29T07:00:03;8.00;99.90
16964;DHT22;8598;50.508;10.436;2023-12-29T07:02:30;8.00;99.90
16964;DHT22;8598;50.508;10.436;2023-12-29T07:04:57;8.00;99.90
16964;DHT22;8598;50.508;10.436;2023-12-29T07:07:24;8.00;99.90
16964;DHT22;8598;50.508;10.436;2023-12-29T07:09:50;8.10;99.90
16964;DHT22;8598;50.508;10.436;2023-12-29T07:12:17;8.10;99.90
16964;DHT22;8598;50.508;10.436;2023-12-29T07:14:45;8.10;99.90
16964;DHT22;8598;50.508;10.436;2023-12-29T07:17:11;8.20;99.90
16964;DHT22;8598;50.508;10.436;2023-12-29T07:19:38;8.20;99.90
16964;DHT22;8598;50.508;10.436;2023-12-29T07:22:05;8.10;99.90
16964;DHT22;8598;50.508;10.436;2023-12-29T07:24:33;8.10;99.90
16964;DHT22;8598;50.508;10.436;2023-12-29T07:27:00;8.10;99.90
16964;DHT22;8598;50.508;10.436;2023-12-29T07:29:27;8.00;99.90
16964;DHT22;8598;50.508;10.436;2023-12-29T07:31:55;8.10;99.90
16964;DHT22;8598;50.508;10.436;2023-12-29T07:34:21;8.10;99.90
16964;DHT22;8598;50.508;10.436;2023-12-29T07:36:48;8.20;99.90
16964;DHT22;8598;50.508;10.436;2023-12-29T07:39:15;8.10;99.90
16964;DHT22;8598;50.508;10.436;2023-12-29T07:41:42;8.10;99.90
16964;DHT22;8598;50.508;10.436;2023-12-29T07:44:10;8.20;99.90
16964;DHT22;8598;50.508;10.436;2023-12-29T07:46:37;8.20;99.90
16964;DHT22;8598;50.508;10.436;2023-12-29T07:49:05;8.30;99.90
16964;DHT22;8598;50.508;10.436;2023-12-29T07:51:32;8.40;99.90
16964;DHT22;8598;50.508;10.436;2023-12-29T07:53:58;8.40;99.90
16964;DHT22;8598;50.508;10.436;2023-12-29T07:56:25;8.40;99.90
16964;DHT22;8598;50.508;10.436;2023-12-29T07:58:51;8.40;99.90
16964;DHT22;8598;50.508;10.436;2023-12-29T08:01:18;8.40;99.90
16964;DHT22;8598;50.508;10.436;2023-12-29T08:03:44;8.40;99.90
16964;DHT22;8598;50.508;10.436;2023-12-29T08:06:13;8.40;99.90
16964;DHT22;8598;50.508;10.436;2023-12-29T08:08:40;8.50;99.90
16964;DHT22;8598;50.508;10.436;2023-12-29T08:11:12;8.50;99.90
16964;DHT22;8598;50.508;10.436;2023-12-29T08:13:39;8.50;99.90
16964;DHT22;8598;50.508;10.436;2023-12-29T08:16:06;8.50;99.90
16964;DHT22;8598;50.508;10.436;2023-12-29T08:18:33;8.50;99.90
16964;DHT22;8598;50.508;10.436;2023-12-29T08:21:00;8.50;99.90
16964;DHT22;8598;50.508;10.436;2023-12-29T08:23:28;8.50;99.90
16964;DHT22;8598;50.508;10.436;2023-12-29T08:25:56;8.50;99.90
16964;DHT22;8598;50.508;10.436;2023-12-29T08:28:23;8.50;99.90
16964;DHT22;8598;50.508;10.436;2023-12-29T08:30:49;8.50;99.90
16964;DHT22;8598;50.508;10.436;2023-12-29T08:33:16;8.50;99.90
16964;DHT22;8598;50.508;10.436;2023-12-29T08:35:44;8.50;99.90
16964;DHT22;8598;50.508;10.436;2023-12-29T08:38:11;8.50;99.90
16964;DHT22;8598;50.508;10.436;2023-12-29T08:40:39;8.50;99.90
16964;DHT22;8598;50.508;10.436;2023-12-29T08:43:06;8.40;99.90
16964;DHT22;8598;50.508;10.436;2023-12-29T08:45:32;8.50;99.90
16964;DHT22;8598;50.508;10.436;2023-12-29T08:47:59;8.50;99.90
16964;DHT22;8598;50.508;10.436;2023-12-29T08:50:26;8.40;99.90
16964;DHT22;8598;50.508;10.436;2023-12-29T08:52:52;8.40;99.90
16964;DHT22;8598;50.508;10.436;2023-12-29T08:55:19;8.50;99.90
16964;DHT22;8598;50.508;10.436;2023-12-29T08:57:47;8.40;99.90
16964;DHT22;8598;50.508;10.436;2023-12-29T09:00:14;8.40;99.90
16964;DHT22;8598;50.508;10.436;2023-12-29T09:02:41;8.40;99.90
16964;DHT22;8598;50.508;10.436;2023-12-29T09:05:08;8.40;99.90
16964;DHT22;8598;50.508;10.436;2023-12-29T09:07:34;8.40;99.90
16964;DHT22;8598;50.508;10.436;2023-12-29T09:10:01;8.40;99.90
16964;DHT22;8598;50.508;10.436;2023-12-29T09:12:28;8.30;99.90
16964;DHT22;8598;50.508;10.436;2023-12-29T09:14:56;8.30;99.90
16964;DHT22;8598;50.508;10.436;2023-12-29T09:17:23;8.30;99.90
16964;DHT22;8598;50.508;10.436;2023-12-29T09:19:49;8.40;99.90
16964;DHT22;8598;50.508;10.436;2023-12-29T09:22:16;8.30;99.90
16964;DHT22;8598;50.508;10.436;2023-12-29T09:24:43;8.40;99.90
16964;DHT22;8598;50.508;10.436;2023-12-29T09:27:09;8.40;99.90
16964;DHT22;8598;50.508;10.436;2023-12-29T09:29:37;8.40;99.90
16964;DHT22;8598;50.508;10.436;2023-12-29T09:32:05;8.40;99.90
16964;DHT22;8598;50.508;10.436;2023-12-29T09:34:32;8.30;99.90
16964;DHT22;8598;50.508;10.436;2023-12-29T09:36:58;8.30;99.90
16964;DHT22;8598;50.508;10.436;2023-12-29T09:39:25;8.40;99.90
16964;DHT22;8598;50.508;10.436;2023-12-29T09:41:52;8.40;99.90
16964;DHT22;8598;50.508;10.436;2023-12-29T09:44:21;8.50;99.90
16964;DHT22;8598;50.508;10.436;2023-12-29T09:46:49;8.50;99.90
16964;DHT22;8598;50.508;10.436;2023-12-29T09:49:19;8.50;99.90
16964;DHT22;8598;50.508;10.436;2023-12-29T09:51:47;8.60;99.90
16964;DHT22;8598;50.508;10.436;2023-12-29T09:54:14;8.60;99.90
16964;DHT22;8598;50.508;10.436;2023-12-29T09:56:41;8.60;99.90
16964;DHT22;8598;50.508;10.436;2023-12-29T09:59:10;8.60;99.90
16964;DHT22;8598;50.508;10.436;2023-12-29T10:01:39;8.70;99.90
16964;DHT22;8598;50.508;10.436;2023-12-29T10:04:07;8.70;99.90
16964;DHT22;8598;50.508;10.436;2023-12-29T10:06:36;8.80;99.90
16964;DHT22;8598;50.508;10.436;2023-12-29T10:09:07;8.80;99.90
16964;DHT22;8598;50.508;10.436;2023-12-29T10:11:37;8.80;99.90
16964;DHT22;8598;50.508;10.436;2023-12-29T10:14:11;8.90;99.90
16964;DHT22;8598;50.508;10.436;2023-12-29T10:16:42;8.90;99.90
16964;DHT22;8598;50.508;10.436;2023-12-29T10:19:17;8.90;99.90
16964;DHT22;8598;50.508;10.436;2023-12-29T10:21:55;9.00;99.90
16964;DHT22;8598;50.508;10.436;2023-12-29T10:24:24;8.90;99.90
16964;DHT22;8598;50.508;10.436;2023-12-29T10:26:51;8.90;99.90
16964;DHT22;8598;50.508;10.436;2023-12-29T10:29:19;8.90;99.90
16964;DHT22;8598;50.508;10.436;2023-12-29T10:31:46;9.00;99.90
16964;DHT22;8598;50.508;10.436;2023-12-29T10:34:20;9.10;99.90
16964;DHT22;8598;50.508;10.436;2023-12-29T10:36:55;9.10;99.90
16964;DHT22;8598;50.508;10.436;2023-12-29T10:39:22;9.20;99.90
16964;DHT22;8598;50.508;10.436;2023-12-29T10:41:49;9.20;99.90
16964;DHT22;8598;50.508;10.436;2023-12-29T10:44:16;9.30;99.90
16964;DHT22;8598;50.508;10.436;2023-12-29T10:46:43;9.40;99.90
16964;DHT22;8598;50.508;10.436;2023-12-29T10:49:10;9.50;99.90
16964;DHT22;8598;50.508;10.436;2023-12-29T10:51:37;9.50;99.90
16964;DHT22;8598;50.508;10.436;2023-12-29T10:54:05;9.60;99.90
16964;DHT22;8598;50.508;10.436;2023-12-29T10:56:33;9.60;99.90
16964;DHT22;8598;50.508;10.436;2023-12-29T10:59:00;9.60;99.90
16964;DHT22;8598;50.508;10.436;2023-12-29T11:01:28;9.60;99.90
16964;DHT22;8598;50.508;10.436;2023-12-29T11:03:59;9.60;99.90
16964;DHT22;8598;50.508;10.436;2023-12-29T11:06:27;9.60;99.90
16964;DHT22;8598;50.508;10.436;2023-12-29T11:08:54;9.70;99.90
16964;DHT22;8598;50.508;10.436;2023-12-29T11:11:23;9.70;99.90
16964;DHT22;8598;50.508;10.436;2023-12-29T11:13:50;9.60;99.90
16964;DHT22;8598;50.508;10.436;2023-12-29T11:16:17;9.60;99.90
16964;DHT22;8598;50.508;10.436;2023-12-29T11:18:47;9.60;99.90
16964;DHT22;8598;50.508;10.436;2023-12-29T11:21:16;9.60;99.90
16964;DHT22;8598;50.508;10.436;2023-12-29T11:23:42;9.60;99.90
16964;DHT22;8598;50.508;10.436;2023-12-29T11:26:09;9.60;99.90
16964;DHT22;8598;50.508;10.436;2023-12-29T11:28:37;9.60;99.90
16964;DHT22;8598;50.508;10.436;2023-12-29T11:31:04;9.50;99.90
16964;DHT22;8598;50.508;10.436;2023-12-29T11:33:37;9.50;99.90
16964;DHT22;8598;50.508;10.436;2023-12-29T11:36:10;9.50;99.90
16964;DHT22;8598;50.508;10.436;2023-12-29T11:38:47;9.50;99.90
16964;DHT22;8598;50.508;10.436;2023-12-29T11:41:23;9.50;99.90
16964;DHT22;8598;50.508;10.436;2023-12-29T11:43:59;9.50;99.90
16964;DHT22;8598;50.508;10.436;2023-12-29T11:46:32;9.40;99.90
16964;DHT22;8598;50.508;10.436;2023-12-29T11:48:59;9.40;99.90
16964;DHT22;8598;50.508;10.436;2023-12-29T11:51:32;9.30;99.90
16964;DHT22;8598;50.508;10.436;2023-12-29T11:54:00;9.30;99.90
16964;DHT22;8598;50.508;10.436;2023-12-29T11:56:37;9.30;99.90
16964;DHT22;8598;50.508;10.436;2023-12-29T11:59:17;9.20;99.90
16964;DHT22;8598;50.508;10.436;2023-12-29T12:01:45;9.30;99.90
16964;DHT22;8598;50.508;10.436;2023-12-29T12:04:37;9.20;99.90
16964;DHT22;8598;50.508;10.436;2023-12-29T12:07:07;9.20;99.90
16964;DHT22;8598;50.508;10.436;2023-12-29T12:09:34;9.20;99.90
16964;DHT22;8598;50.508;10.436;2023-12-29T12:12:01;9.20;99.90
16964;DHT22;8598;50.508;10.436;2023-12-29T12:14:50;9.20;99.90
16964;DHT22;8598;50.508;10.436;2023-12-29T12:17:30;9.20;99.90
16964;DHT22;8598;50.508;10.436;2023-12-29T12:19:58;9.20;99.90
16964;DHT22;8598;50.508;10.436;2023-12-29T12:22:25;9.20;99.90
16964;DHT22;8598;50.508;10.436;2023-12-29T12:24:56;9.30;99.90
16964;DHT22;8598;50.508;10.436;2023-12-29T12:27:23;9.30;99.90
16964;DHT22;8598;50.508;10.436;2023-12-29T12:29:54;9.40;99.90
16964;DHT22;8598;50.508;10.436;2023-12-29T12:32:25;9.40;99.90
16964;DHT22;8598;50.508;10.436;2023-12-29T12:34:52;9.40;99.90
16964;DHT22;8598;50.508;10.436;2023-12-29T12:37:19;9.40;99.90
16964;DHT22;8598;50.508;10.436;2023-12-29T12:39:46;9.50;99.90
16964;DHT22;8598;50.508;10.436;2023-12-29T12:42:13;9.50;99.90
16964;DHT22;8598;50.508;10.436;2023-12-29T12:44:42;9.50;99.90
16964;DHT22;8598;50.508;10.436;2023-12-29T12:47:17;9.50;99.90
16964;DHT22;8598;50.508;10.436;2023-12-29T12:49:45;9.60;99.90
16964;DHT22;8598;50.508;10.436;2023-12-29T12:52:12;9.60;99.90
16964;DHT22;8598;50.508;10.436;2023-12-29T12:54:39;9.60;99.90
16964;DHT22;8598;50.508;10.436;2023-12-29T12:57:05;9.60;99.90
16964;DHT22;8598;50.508;10.436;2023-12-29T12:59:32;9.70;99.90
16964;DHT22;8598;50.508;10.436;2023-12-29T13:01:59;9.70;99.90
16964;DHT22;8598;50.508;10.436;2023-12-29T13:04:27;9.70;99.90
16964;DHT22;8598;50.508;10.436;2023-12-29T13:06:54;9.70;99.90
16964;DHT22;8598;50.508;10.436;2023-12-29T13:09:21;9.80;99.90
16964;DHT22;8598;50.508;10.436;2023-12-29T13:11:47;9.80;99.90
16964;DHT22;8598;50.508;10.436;2023-12-29T13:14:20;9.70;99.90
16964;DHT22;8598;50.508;10.436;2023-12-29T13:16:48;9.70;99.90
16964;DHT22;8598;50.508;10.436;2023-12-29T13:19:16;9.70;99.90
16964;DHT22;8598;50.508;10.436;2023-12-29T13:21:47;9.70;99.90
16964;DHT22;8598;50.508;10.436;2023-12-29T13:24:14;9.70;99.90
16964;DHT22;8598;50.508;10.436;2023-12-29T13:26:41;9.60;99.90
16964;DHT22;8598;50.508;10.436;2023-12-29T13:29:09;9.60;99.90
16964;DHT22;8598;50.508;10.436;2023-12-29T13:31:36;9.60;99.90
16964;DHT22;8598;50.508;10.436;2023-12-29T13:34:06;9.60;99.90
16964;DHT22;8598;50.508;10.436;2023-12-29T13:36:38;9.60;99.90
16964;DHT22;8598;50.508;10.436;2023-12-29T13:39:11;9.50;99.90
16964;DHT22;8598;50.508;10.436;2023-12-29T13:41:41;9.50;99.90
16964;DHT22;8598;50.508;10.436;2023-12-29T13:44:08;9.50;99.90
16964;DHT22;8598;50.508;10.436;2023-12-29T13:46:36;9.60;99.90
16964;DHT22;8598;50.508;10.436;2023-12-29T13:49:04;9.60;99.90
16964;DHT22;8598;50.508;10.436;2023-12-29T13:51:32;9.60;99.90
16964;DHT22;8598;50.508;10.436;2023-12-29T13:53:59;9.50;99.90
16964;DHT22;8598;50.508;10.436;2023-12-29T13:56:27;9.50;99.90
16964;DHT22;8598;50.508;10.436;2023-12-29T13:58:54;9.50;99.90
16964;DHT22;8598;50.508;10.436;2023-12-29T14:01:22;9.50;99.90
16964;DHT22;8598;50.508;10.436;2023-12-29T14:03:51;9.50;99.90
16964;DHT22;8598;50.508;10.436;2023-12-29T14:06:26;9.40;99.90
16964;DHT22;8598;50.508;10.436;2023-12-29T14:08:54;9.40;99.90
16964;DHT22;8598;50.508;10.436;2023-12-29T14:11:21;9.50;99.90
16964;DHT22;8598;50.508;10.436;2023-12-29T14:13:49;9.40;99.90
16964;DHT22;8598;50.508;10.436;2023-12-29T14:16:16;9.50;99.90
16964;DHT22;8598;50.508;10.436;2023-12-29T14:18:55;9.50;99.90
16964;DHT22;8598;50.508;10.436;2023-12-29T14:21:23;9.50;99.90
16964;DHT22;8598;50.508;10.436;2023-12-29T14:24:00;9.50;99.90
16964;DHT22;8598;50.508;10.436;2023-12-29T14:26:28;9.50;99.90
16964;DHT22;8598;50.508;10.436;2023-12-29T14:29:04;9.50;99.90
16964;DHT22;8598;50.508;10.436;2023-12-29T14:31:37;9.50;99.90
16964;DHT22;8598;50.508;10.436;2023-12-29T14:34:04;9.50;99.90
16964;DHT22;8598;50.508;10.436;2023-12-29T14:36:31;9.50;99.90
16964;DHT22;8598;50.508;10.436;2023-12-29T14:38:58;9.50;99.90
16964;DHT22;8598;50.508;10.436;2023-12-29T14:41:25;9.50;99.90
16964;DHT22;8598;50.508;10.436;2023-12-29T14:43:52;9.60;99.90
16964;DHT22;8598;50.508;10.436;2023-12-29T14:46:20;9.50;99.90
16964;DHT22;8598;50.508;10.436;2023-12-29T14:48:46;9.50;99.90
16964;DHT22;8598;50.508;10.436;2023-12-29T14:51:13;9.50;99.90
16964;DHT22;8598;50.508;10.436;2023-12-29T14:53:43;9.50;99.90
16964;DHT22;8598;50.508;10.436;2023-12-29T14:56:10;9.50;99.90
16964;DHT22;8598;50.508;10.436;2023-12-29T14:58:37;9.50;99.90
16964;DHT22;8598;50.508;10.436;2023-12-29T15:01:03;9.50;99.90
16964;DHT22;8598;50.508;10.436;2023-12-29T15:03:33;9.50;99.90
16964;DHT22;8598;50.508;10.436;2023-12-29T15:06:00;9.50;99.90
16964;DHT22;8598;50.508;10.436;2023-12-29T15:08:27;9.50;99.90
16964;DHT22;8598;50.508;10.436;2023-12-29T15:11:00;9.50;99.90
16964;DHT22;8598;50.508;10.436;2023-12-29T15:13:26;9.40;99.90
16964;DHT22;8598;50.508;10.436;2023-12-29T15:15:53;9.40;99.90
16964;DHT22;8598;50.508;10.436;2023-12-29T15:18:20;9.50;99.90
16964;DHT22;8598;50.508;10.436;2023-12-29T15:20:50;9.40;99.90
16964;DHT22;8598;50.508;10.436;2023-12-29T15:23:16;9.40;99.90
16964;DHT22;8598;50.508;10.436;2023-12-29T15:25:43;9.40;99.90
16964;DHT22;8598;50.508;10.436;2023-12-29T15:28:10;9.40;99.90
16964;DHT22;8598;50.508;10.436;2023-12-29T15:30:36;9.40;99.90
16964;DHT22;8598;50.508;10.436;2023-12-29T15:33:03;9.40;99.90
16964;DHT22;8598;50.508;10.436;2023-12-29T15:35:30;9.40;99.90
16964;DHT22;8598;50.508;10.436;2023-12-29T15:37:57;9.50;99.90
16964;DHT22;8598;50.508;10.436;2023-12-29T15:40:24;9.50;99.90
16964;DHT22;8598;50.508;10.436;2023-12-29T15:42:51;9.50;99.90
16964;DHT22;8598;50.508;10.436;2023-12-29T15:45:17;9.50;99.90
16964;DHT22;8598;50.508;10.436;2023-12-29T15:47:45;9.40;99.90